sensor_id;sensor_type;location;lat;lon;timestamp;temperature;humidity
22852;DHT22;11592;45.460;9.240;2023-11-21T00:01:24;11.60;99.90
22852;DHT22;11592;45.460;9.240;2023-11-21T00:03:51;11.60;99.90
22852;DHT22;11592;45.460;9.240;2023-11-21T00:06:21;11.70;99.90
22852;DHT22;11592;45.460;9.240;2023-11-21T00:08:48;11.60;99.90
22852;DHT22;11592;45.460;9.240;2023-11-21T00:11:14;11.60;99.90
22852;DHT22;11592;45.460;9.240;2023-11-21T00:13:41;11.50;99.90
22852;DHT22;11592;45.460;9.240;2023-11-21T00:16:08;11.50;99.90
22852;DHT22;11592;45.460;9.240;2023-11-21T00:18:35;11.40;99.90
22852;DHT22;11592;45.460;9.240;2023-11-21T00:21:02;11.20;99.90
22852;DHT22;11592;45.460;9.240;2023-11-21T00:23:30;11.30;99.90
22852;DHT22;11592;45.460;9.240;2023-11-21T00:25:57;11.40;99.90
22852;DHT22;11592;45.460;9.240;2023-11-21T00:28:24;11.40;99.90
22852;DHT22;11592;45.460;9.240;2023-11-21T00:30:51;11.50;99.90
22852;DHT22;11592;45.460;9.240;2023-11-21T00:33:18;11.40;99.90
22852;DHT22;11592;45.460;9.240;2023-11-21T00:35:45;11.40;99.90
22852;DHT22;11592;45.460;9.240;2023-11-21T00:38:12;11.40;99.90
22852;DHT22;11592;45.460;9.240;2023-11-21T00:40:38;11.50;99.90
22852;DHT22;11592;45.460;9.240;2023-11-21T00:43:05;11.50;99.90
22852;DHT22;11592;45.460;9.240;2023-11-21T00:45:32;11.40;99.90
22852;DHT22;11592;45.460;9.240;2023-11-21T00:47:59;11.40;99.90
22852;DHT22;11592;45.460;9.240;2023-11-21T00:50:26;11.50;99.90
22852;DHT22;11592;45.460;9.240;2023-11-21T00:52:53;11.90;99.90
22852;DHT22;11592;45.460;9.240;2023-11-21T00:55:20;11.50;99.90
22852;DHT22;11592;45.460;9.240;2023-11-21T00:57:48;11.50;99.90
22852;DHT22;11592;45.460;9.240;2023-11-21T01:00:15;11.50;99.90
22852;DHT22;11592;45.460;9.240;2023-11-21T01:02:44;11.60;99.90
22852;DHT22;11592;45.460;9.240;2023-11-21T01:05:11;11.60;99.90
22852;DHT22;11592;45.460;9.240;2023-11-21T01:07:38;11.60;99.90
22852;DHT22;11592;45.460;9.240;2023-11-21T01:10:06;11.50;99.90
22852;DHT22;11592;45.460;9.240;2023-11-21T01:12:35;11.50;99.90
22852;DHT22;11592;45.460;9.240;2023-11-21T01:15:04;11.50;99.90
22852;DHT22;11592;45.460;9.240;2023-11-21T01:17:34;11.50;99.90
22852;DHT22;11592;45.460;9.240;2023-11-21T01:20:02;11.50;99.90
22852;DHT22;11592;45.460;9.240;2023-11-21T01:22:29;11.50;99.90
22852;DHT22;11592;45.460;9.240;2023-11-21T01:24:56;11.60;99.90
22852;DHT22;11592;45.460;9.240;2023-11-21T01:27:24;11.50;99.90
22852;DHT22;11592;45.460;9.240;2023-11-21T01:29:51;11.50;99.90
22852;DHT22;11592;45.460;9.240;2023-11-21T01:32:20;11.60;99.90
22852;DHT22;11592;45.460;9.240;2023-11-21T01:34:50;11.50;99.90
22852;DHT22;11592;45.460;9.240;2023-11-21T01:37:17;11.50;99.90
22852;DHT22;11592;45.460;9.240;2023-11-21T01:39:44;11.50;99.90
22852;DHT22;11592;45.460;9.240;2023-11-21T01:42:11;11.50;99.90
22852;DHT22;11592;45.460;9.240;2023-11-21T01:44:39;11.50;99.90
22852;DHT22;11592;45.460;9.240;2023-11-21T01:47:07;11.60;99.90
22852;DHT22;11592;45.460;9.240;2023-11-21T01:49:35;11.60;99.90
22852;DHT22;11592;45.460;9.240;2023-11-21T01:52:03;11.60;99.90
22852;DHT22;11592;45.460;9.240;2023-11-21T01:54:31;11.60;99.90
22852;DHT22;11592;45.460;9.240;2023-11-21T01:56:59;11.60;99.90
22852;DHT22;11592;45.460;9.240;2023-11-21T01:59:41;11.60;99.90
22852;DHT22;11592;45.460;9.240;2023-11-21T02:02:08;11.60;99.90
22852;DHT22;11592;45.460;9.240;2023-11-21T02:04:37;11.60;99.90
22852;DHT22;11592;45.460;9.240;2023-11-21T02:07:04;11.70;99.90
22852;DHT22;11592;45.460;9.240;2023-11-21T02:09:34;11.70;99.90
22852;DHT22;11592;45.460;9.240;2023-11-21T02:12:01;11.70;99.90
22852;DHT22;11592;45.460;9.240;2023-11-21T02:14:28;11.60;99.90
22852;DHT22;11592;45.460;9.240;2023-11-21T02:16:55;11.60;99.90
22852;DHT22;11592;45.460;9.240;2023-11-21T02:19:24;11.60;99.90
22852;DHT22;11592;45.460;9.240;2023-11-21T02:21:53;11.60;99.90
22852;DHT22;11592;45.460;9.240;2023-11-21T02:24:22;11.60;99.90
22852;DHT22;11592;45.460;9.240;2023-11-21T02:26:49;11.60;99.90
22852;DHT22;11592;45.460;9.240;2023-11-21T02:29:20;11.60;99.90
22852;DHT22;11592;45.460;9.240;2023-11-21T02:31:53;11.60;99.90
22852;DHT22;11592;45.460;9.240;2023-11-21T02:34:22;11.60;99.90
22852;DHT22;11592;45.460;9.240;2023-11-21T02:36:49;11.60;99.90
22852;DHT22;11592;45.460;9.240;2023-11-21T02:39:16;11.60;99.90
22852;DHT22;11592;45.460;9.240;2023-11-21T02:41:44;11.60;99.90
22852;DHT22;11592;45.460;9.240;2023-11-21T02:44:11;11.60;99.90
22852;DHT22;11592;45.460;9.240;2023-11-21T02:46:38;11.60;99.90
22852;DHT22;11592;45.460;9.240;2023-11-21T02:49:06;11.70;99.90
22852;DHT22;11592;45.460;9.240;2023-11-21T02:51:33;11.70;99.90
22852;DHT22;11592;45.460;9.240;2023-11-21T02:54:00;11.70;99.90
22852;DHT22;11592;45.460;9.240;2023-11-21T02:56:29;11.70;99.90
22852;DHT22;11592;45.460;9.240;2023-11-21T02:58:56;11.70;99.90
22852;DHT22;11592;45.460;9.240;2023-11-21T03:01:23;11.70;99.90
22852;DHT22;11592;45.460;9.240;2023-11-21T03:03:51;11.70;99.90
22852;DHT22;11592;45.460;9.240;2023-11-21T03:06:19;11.70;99.90
22852;DHT22;11592;45.460;9.240;2023-11-21T03:08:46;11.70;99.90
22852;DHT22;11592;45.460;9.240;2023-11-21T03:11:14;11.60;99.90
22852;DHT22;11592;45.460;9.240;2023-11-21T03:13:41;11.70;99.90
22852;DHT22;11592;45.460;9.240;2023-11-21T03:16:11;11.70;99.90
22852;DHT22;11592;45.460;9.240;2023-11-21T03:18:39;11.70;99.90
22852;DHT22;11592;45.460;9.240;2023-11-21T03:21:06;11.70;99.90
22852;DHT22;11592;45.460;9.240;2023-11-21T03:23:36;11.70;99.90
22852;DHT22;11592;45.460;9.240;2023-11-21T03:26:03;11.70;99.90
22852;DHT22;11592;45.460;9.240;2023-11-21T03:28:30;11.70;99.90
22852;DHT22;11592;45.460;9.240;2023-11-21T03:30:57;11.70;99.90
22852;DHT22;11592;45.460;9.240;2023-11-21T03:33:24;11.70;99.90
22852;DHT22;11592;45.460;9.240;2023-11-21T03:35:51;11.70;99.90
22852;DHT22;11592;45.460;9.240;2023-11-21T03:38:20;11.60;99.90
22852;DHT22;11592;45.460;9.240;2023-11-21T03:40:47;11.70;99.90
22852;DHT22;11592;45.460;9.240;2023-11-21T03:43:14;11.60;99.90
22852;DHT22;11592;45.460;9.240;2023-11-21T03:45:41;11.60;99.90
22852;DHT22;11592;45.460;9.240;2023-11-21T03:48:08;11.70;99.90
22852;DHT22;11592;45.460;9.240;2023-11-21T03:50:35;11.70;99.90
22852;DHT22;11592;45.460;9.240;2023-11-21T03:53:02;11.70;99.90
22852;DHT22;11592;45.460;9.240;2023-11-21T03:55:30;11.70;99.90
22852;DHT22;11592;45.460;9.240;2023-11-21T03:57:58;11.70;99.90
22852;DHT22;11592;45.460;9.240;2023-11-21T04:00:25;11.70;99.90
22852;DHT22;11592;45.460;9.240;2023-11-21T04:02:55;11.70;99.90
22852;DHT22;11592;45.460;9.240;2023-11-21T04:05:23;11.80;99.90
22852;DHT22;11592;45.460;9.240;2023-11-21T04:07:50;11.70;99.90
22852;DHT22;11592;45.460;9.240;2023-11-21T04:10:18;11.70;99.90
22852;DHT22;11592;45.460;9.240;2023-11-21T04:12:45;11.70;99.90
22852;DHT22;11592;45.460;9.240;2023-11-21T04:15:12;11.70;99.90
22852;DHT22;11592;45.460;9.240;2023-11-21T04:17:42;11.70;99.90
22852;DHT22;11592;45.460;9.240;2023-11-21T04:20:09;11.70;99.90
22852;DHT22;11592;45.460;9.240;2023-11-21T04:22:40;11.70;99.90
22852;DHT22;11592;45.460;9.240;2023-11-21T04:25:15;11.60;99.90
22852;DHT22;11592;45.460;9.240;2023-11-21T04:27:44;11.70;99.90
22852;DHT22;11592;45.460;9.240;2023-11-21T04:30:12;11.70;99.90
22852;DHT22;11592;45.460;9.240;2023-11-21T04:32:39;11.70;99.90
22852;DHT22;11592;45.460;9.240;2023-11-21T04:35:06;11.70;99.90
22852;DHT22;11592;45.460;9.240;2023-11-21T04:37:35;11.70;99.90
22852;DHT22;11592;45.460;9.240;2023-11-21T04:40:02;11.70;99.90
22852;DHT22;11592;45.460;9.240;2023-11-21T04:42:36;11.70;99.90
22852;DHT22;11592;45.460;9.240;2023-11-21T04:45:05;11.70;99.90
22852;DHT22;11592;45.460;9.240;2023-11-21T04:47:35;11.70;99.90
22852;DHT22;11592;45.460;9.240;2023-11-21T04:50:03;11.70;99.90
22852;DHT22;11592;45.460;9.240;2023-11-21T04:52:31;11.70;99.90
22852;DHT22;11592;45.460;9.240;2023-11-21T04:54:57;11.70;99.90
22852;DHT22;11592;45.460;9.240;2023-11-21T04:57:25;11.70;99.90
22852;DHT22;11592;45.460;9.240;2023-11-21T04:59:52;11.60;99.90
22852;DHT22;11592;45.460;9.240;2023-11-21T05:02:18;11.70;99.90
22852;DHT22;11592;45.460;9.240;2023-11-21T05:05:01;11.70;99.90
22852;DHT22;11592;45.460;9.240;2023-11-21T05:07:29;11.70;99.90
22852;DHT22;11592;45.460;9.240;2023-11-21T05:09:58;11.70;99.90
22852;DHT22;11592;45.460;9.240;2023-11-21T05:12:25;11.70;99.90
22852;DHT22;11592;45.460;9.240;2023-11-21T05:14:52;11.60;99.90
22852;DHT22;11592;45.460;9.240;2023-11-21T05:17:18;11.70;99.90
22852;DHT22;11592;45.460;9.240;2023-11-21T05:19:45;11.70;99.90
22852;DHT22;11592;45.460;9.240;2023-11-21T05:22:16;11.70;99.90
22852;DHT22;11592;45.460;9.240;2023-11-21T05:24:42;11.70;99.90
22852;DHT22;11592;45.460;9.240;2023-11-21T05:27:09;11.60;99.90
22852;DHT22;11592;45.460;9.240;2023-11-21T05:29:36;11.60;99.90
22852;DHT22;11592;45.460;9.240;2023-11-21T05:32:04;11.70;99.90
22852;DHT22;11592;45.460;9.240;2023-11-21T05:34:31;11.70;99.90
22852;DHT22;11592;45.460;9.240;2023-11-21T05:36:58;11.70;99.90
22852;DHT22;11592;45.460;9.240;2023-11-21T05:39:25;11.70;99.90
22852;DHT22;11592;45.460;9.240;2023-11-21T05:41:52;11.70;99.90
22852;DHT22;11592;45.460;9.240;2023-11-21T05:44:19;11.70;99.90
22852;DHT22;11592;45.460;9.240;2023-11-21T05:46:46;11.70;99.90
22852;DHT22;11592;45.460;9.240;2023-11-21T05:49:13;11.70;99.90
22852;DHT22;11592;45.460;9.240;2023-11-21T05:51:39;11.70;99.90
22852;DHT22;11592;45.460;9.240;2023-11-21T05:54:06;11.70;99.90
22852;DHT22;11592;45.460;9.240;2023-11-21T05:56:34;11.70;99.90
22852;DHT22;11592;45.460;9.240;2023-11-21T05:59:01;11.70;99.90
22852;DHT22;11592;45.460;9.240;2023-11-21T06:01:29;11.80;99.90
22852;DHT22;11592;45.460;9.240;2023-11-21T06:03:56;11.80;99.90
22852;DHT22;11592;45.460;9.240;2023-11-21T06:06:24;11.80;99.90
22852;DHT22;11592;45.460;9.240;2023-11-21T06:08:52;11.80;99.90
22852;DHT22;11592;45.460;9.240;2023-11-21T06:11:18;11.80;99.90
22852;DHT22;11592;45.460;9.240;2023-11-21T06:13:45;11.80;99.90
22852;DHT22;11592;45.460;9.240;2023-11-21T06:16:12;11.80;99.90
22852;DHT22;11592;45.460;9.240;2023-11-21T06:18:43;11.90;99.90
22852;DHT22;11592;45.460;9.240;2023-11-21T06:21:10;11.80;99.90
22852;DHT22;11592;45.460;9.240;2023-11-21T06:23:37;11.80;99.90
22852;DHT22;11592;45.460;9.240;2023-11-21T06:26:04;11.90;99.90
22852;DHT22;11592;45.460;9.240;2023-11-21T06:28:32;11.90;99.90
22852;DHT22;11592;45.460;9.240;2023-11-21T06:30:59;11.90;99.90
22852;DHT22;11592;45.460;9.240;2023-11-21T06:33:32;11.90;99.90
22852;DHT22;11592;45.460;9.240;2023-11-21T06:35:59;11.90;99.90
22852;DHT22;11592;45.460;9.240;2023-11-21T06:38:26;11.90;99.90
22852;DHT22;11592;45.460;9.240;2023-11-21T06:40:56;11.90;99.90
22852;DHT22;11592;45.460;9.240;2023-11-21T06:43:25;11.90;99.90
22852;DHT22;11592;45.460;9.240;2023-11-21T06:45:52;11.90;99.90
22852;DHT22;11592;45.460;9.240;2023-11-21T06:48:19;11.90;99.90
22852;DHT22;11592;45.460;9.240;2023-11-21T06:50:47;11.80;99.90
22852;DHT22;11592;45.460;9.240;2023-11-21T06:53:14;11.80;99.90
22852;DHT22;11592;45.460;9.240;2023-11-21T06:55:41;11.80;99.90
22852;DHT22;11592;45.460;9.240;2023-11-21T06:58:07;11.70;99.90
22852;DHT22;11592;45.460;9.240;2023-11-21T07:00:35;11.70;99.90
22852;DHT22;11592;45.460;9.240;2023-11-21T07:03:02;11.70;99.90
22852;DHT22;11592;45.460;9.240;2023-11-21T07:05:29;11.70;99.90
22852;DHT22;11592;45.460;9.240;2023-11-21T07:07:56;11.70;99.90
22852;DHT22;11592;45.460;9.240;2023-11-21T07:10:23;11.70;99.90
22852;DHT22;11592;45.460;9.240;2023-11-21T07:12:50;11.70;99.90
22852;DHT22;11592;45.460;9.240;2023-11-21T07:15:18;11.80;99.90
22852;DHT22;11592;45.460;9.240;2023-11-21T07:17:46;11.80;99.90
22852;DHT22;11592;45.460;9.240;2023-11-21T07:20:13;11.80;99.90
22852;DHT22;11592;45.460;9.240;2023-11-21T07:22:43;11.80;99.90
22852;DHT22;11592;45.460;9.240;2023-11-21T07:25:10;11.80;99.90
22852;DHT22;11592;45.460;9.240;2023-11-21T07:27:37;11.80;99.90
22852;DHT22;11592;45.460;9.240;2023-11-21T07:30:04;11.90;99.90
22852;DHT22;11592;45.460;9.240;2023-11-21T07:32:32;11.90;99.90
22852;DHT22;11592;45.460;9.240;2023-11-21T07:34:59;11.80;99.90
22852;DHT22;11592;45.460;9.240;2023-11-21T07:37:28;11.80;99.90
22852;DHT22;11592;45.460;9.240;2023-11-21T07:39:55;11.80;99.90
22852;DHT22;11592;45.460;9.240;2023-11-21T07:42:23;11.70;99.90
22852;DHT22;11592;45.460;9.240;2023-11-21T07:44:52;11.70;99.90
22852;DHT22;11592;45.460;9.240;2023-11-21T07:47:19;11.80;99.90
22852;DHT22;11592;45.460;9.240;2023-11-21T07:49:46;11.80;99.90
22852;DHT22;11592;45.460;9.240;2023-11-21T07:52:14;11.80;99.90
22852;DHT22;11592;45.460;9.240;2023-11-21T07:54:42;11.90;99.90
22852;DHT22;11592;45.460;9.240;2023-11-21T07:57:09;11.90;99.90
22852;DHT22;11592;45.460;9.240;2023-11-21T07:59:40;12.00;99.90
22852;DHT22;11592;45.460;9.240;2023-11-21T08:02:07;12.00;99.90
22852;DHT22;11592;45.460;9.240;2023-11-21T08:04:35;11.90;99.90
22852;DHT22;11592;45.460;9.240;2023-11-21T08:07:02;12.00;99.90
22852;DHT22;11592;45.460;9.240;2023-11-21T08:09:31;12.20;99.90
22852;DHT22;11592;45.460;9.240;2023-11-21T08:11:57;12.00;99.90
22852;DHT22;11592;45.460;9.240;2023-11-21T08:14:24;12.20;99.90
22852;DHT22;11592;45.460;9.240;2023-11-21T08:16:51;12.20;99.90
22852;DHT22;11592;45.460;9.240;2023-11-21T08:19:19;12.30;99.90
22852;DHT22;11592;45.460;9.240;2023-11-21T08:21:46;11.70;99.90
22852;DHT22;11592;45.460;9.240;2023-11-21T08:24:12;12.40;99.90
22852;DHT22;11592;45.460;9.240;2023-11-21T08:26:39;12.50;99.90
22852;DHT22;11592;45.460;9.240;2023-11-21T08:29:06;12.60;99.90
22852;DHT22;11592;45.460;9.240;2023-11-21T08:31:34;12.50;99.90
22852;DHT22;11592;45.460;9.240;2023-11-21T08:34:01;12.60;99.90
22852;DHT22;11592;45.460;9.240;2023-11-21T08:36:28;12.70;99.90
22852;DHT22;11592;45.460;9.240;2023-11-21T08:38:55;12.80;99.90
22852;DHT22;11592;45.460;9.240;2023-11-21T08:41:22;12.80;99.90
22852;DHT22;11592;45.460;9.240;2023-11-21T08:43:50;12.80;99.90
22852;DHT22;11592;45.460;9.240;2023-11-21T08:46:18;12.80;99.90
22852;DHT22;11592;45.460;9.240;2023-11-21T08:48:46;12.60;99.90
22852;DHT22;11592;45.460;9.240;2023-11-21T08:51:12;12.80;99.90
22852;DHT22;11592;45.460;9.240;2023-11-21T08:53:40;12.70;99.90
22852;DHT22;11592;45.460;9.240;2023-11-21T08:56:08;12.80;99.90
22852;DHT22;11592;45.460;9.240;2023-11-21T08:58:38;12.90;99.90
22852;DHT22;11592;45.460;9.240;2023-11-21T09:01:05;13.00;99.90
22852;DHT22;11592;45.460;9.240;2023-11-21T09:03:33;13.20;99.90
22852;DHT22;11592;45.460;9.240;2023-11-21T09:06:01;13.30;99.90
22852;DHT22;11592;45.460;9.240;2023-11-21T09:08:28;13.40;99.90
22852;DHT22;11592;45.460;9.240;2023-11-21T09:10:56;13.20;99.90
22852;DHT22;11592;45.460;9.240;2023-11-21T09:13:23;13.20;99.90
22852;DHT22;11592;45.460;9.240;2023-11-21T09:15:51;13.20;99.90
22852;DHT22;11592;45.460;9.240;2023-11-21T09:18:18;13.30;99.90
22852;DHT22;11592;45.460;9.240;2023-11-21T09:20:45;13.40;99.90
22852;DHT22;11592;45.460;9.240;2023-11-21T09:23:12;13.50;99.90
22852;DHT22;11592;45.460;9.240;2023-11-21T09:25:39;13.60;99.90
22852;DHT22;11592;45.460;9.240;2023-11-21T09:28:06;13.40;99.90
22852;DHT22;11592;45.460;9.240;2023-11-21T09:30:35;13.10;99.90
22852;DHT22;11592;45.460;9.240;2023-11-21T09:33:03;12.90;99.90
22852;DHT22;11592;45.460;9.240;2023-11-21T09:35:32;13.00;99.90
22852;DHT22;11592;45.460;9.240;2023-11-21T09:37:59;13.20;99.90
22852;DHT22;11592;45.460;9.240;2023-11-21T09:40:28;13.40;99.90
22852;DHT22;11592;45.460;9.240;2023-11-21T09:42:56;13.50;99.90
22852;DHT22;11592;45.460;9.240;2023-11-21T09:45:28;13.60;99.90
22852;DHT22;11592;45.460;9.240;2023-11-21T09:47:56;13.80;99.90
22852;DHT22;11592;45.460;9.240;2023-11-21T09:50:24;13.80;99.90
22852;DHT22;11592;45.460;9.240;2023-11-21T09:55:44;13.90;99.90
22852;DHT22;11592;45.460;9.240;2023-11-21T09:58:11;13.80;99.90
22852;DHT22;11592;45.460;9.240;2023-11-21T10:00:44;13.80;99.90
22852;DHT22;11592;45.460;9.240;2023-11-21T10:03:11;14.10;99.90
22852;DHT22;11592;45.460;9.240;2023-11-21T10:05:44;14.20;99.90
22852;DHT22;11592;45.460;9.240;2023-11-21T10:08:13;14.20;99.90
22852;DHT22;11592;45.460;9.240;2023-11-21T10:10:45;14.10;99.90
22852;DHT22;11592;45.460;9.240;2023-11-21T10:13:13;14.10;99.90
22852;DHT22;11592;45.460;9.240;2023-11-21T10:15:43;14.10;99.90
22852;DHT22;11592;45.460;9.240;2023-11-21T10:18:16;14.10;99.90
22852;DHT22;11592;45.460;9.240;2023-11-21T10:20:43;13.90;99.90
22852;DHT22;11592;45.460;9.240;2023-11-21T10:23:13;13.80;99.90
22852;DHT22;11592;45.460;9.240;2023-11-21T10:25:42;14.00;99.90
22852;DHT22;11592;45.460;9.240;2023-11-21T10:28:09;14.20;99.90
22852;DHT22;11592;45.460;9.240;2023-11-21T10:30:38;14.40;99.90
22852;DHT22;11592;45.460;9.240;2023-11-21T10:33:05;14.50;99.90
22852;DHT22;11592;45.460;9.240;2023-11-21T10:35:45;14.20;99.90
22852;DHT22;11592;45.460;9.240;2023-11-21T10:38:18;14.00;99.90
22852;DHT22;11592;45.460;9.240;2023-11-21T10:40:46;13.70;99.90
22852;DHT22;11592;45.460;9.240;2023-11-21T10:43:14;13.80;99.90
22852;DHT22;11592;45.460;9.240;2023-11-21T10:45:45;13.80;99.90
22852;DHT22;11592;45.460;9.240;2023-11-21T10:48:14;14.00;99.90
22852;DHT22;11592;45.460;9.240;2023-11-21T10:50:46;14.20;99.90
22852;DHT22;11592;45.460;9.240;2023-11-21T10:53:13;14.40;99.90
22852;DHT22;11592;45.460;9.240;2023-11-21T10:55:41;14.30;99.90
22852;DHT22;11592;45.460;9.240;2023-11-21T10:58:10;14.20;99.90
22852;DHT22;11592;45.460;9.240;2023-11-21T11:00:40;14.50;99.90
22852;DHT22;11592;45.460;9.240;2023-11-21T11:03:07;14.90;99.90
22852;DHT22;11592;45.460;9.240;2023-11-21T11:05:43;15.50;99.90
22852;DHT22;11592;45.460;9.240;2023-11-21T11:08:21;15.70;99.90
22852;DHT22;11592;45.460;9.240;2023-11-21T11:10:54;15.50;99.90
22852;DHT22;11592;45.460;9.240;2023-11-21T11:13:21;15.90;99.90
22852;DHT22;11592;45.460;9.240;2023-11-21T11:15:50;16.10;99.90
22852;DHT22;11592;45.460;9.240;2023-11-21T11:18:17;16.10;99.90
22852;DHT22;11592;45.460;9.240;2023-11-21T11:20:46;19.10;99.90
22852;DHT22;11592;45.460;9.240;2023-11-21T11:26:24;21.70;99.90
22852;DHT22;11592;45.460;9.240;2023-11-21T11:31:45;25.10;98.00
22852;DHT22;11592;45.460;9.240;2023-11-21T11:34:30;26.10;95.60
22852;DHT22;11592;45.460;9.240;2023-11-21T11:37:06;25.00;95.70
22852;DHT22;11592;45.460;9.240;2023-11-21T11:39:38;24.30;95.10
22852;DHT22;11592;45.460;9.240;2023-11-21T11:42:17;23.20;98.10
22852;DHT22;11592;45.460;9.240;2023-11-21T11:44:46;24.40;97.10
22852;DHT22;11592;45.460;9.240;2023-11-21T11:47:28;26.80;94.20
22852;DHT22;11592;45.460;9.240;2023-11-21T11:50:02;27.80;91.90
22852;DHT22;11592;45.460;9.240;2023-11-21T11:52:49;28.30;88.90
22852;DHT22;11592;45.460;9.240;2023-11-21T11:55:19;28.30;88.40
22852;DHT22;11592;45.460;9.240;2023-11-21T11:57:56;27.30;89.40
22852;DHT22;11592;45.460;9.240;2023-11-21T12:00:34;28.10;88.90
22852;DHT22;11592;45.460;9.240;2023-11-21T12:03:06;29.70;86.00
22852;DHT22;11592;45.460;9.240;2023-11-21T12:05:35;30.70;79.60
22852;DHT22;11592;45.460;9.240;2023-11-21T12:08:06;30.80;76.70
22852;DHT22;11592;45.460;9.240;2023-11-21T12:10:36;30.40;75.80
22852;DHT22;11592;45.460;9.240;2023-11-21T12:13:06;30.40;75.00
22852;DHT22;11592;45.460;9.240;2023-11-21T12:15:34;31.40;72.50
22852;DHT22;11592;45.460;9.240;2023-11-21T12:18:03;31.40;70.50
22852;DHT22;11592;45.460;9.240;2023-11-21T12:20:31;29.20;72.80
22852;DHT22;11592;45.460;9.240;2023-11-21T12:22:59;29.40;74.60
22852;DHT22;11592;45.460;9.240;2023-11-21T12:25:30;29.90;72.80
22852;DHT22;11592;45.460;9.240;2023-11-21T12:28:01;29.80;71.70
22852;DHT22;11592;45.460;9.240;2023-11-21T12:30:31;31.70;70.60
22852;DHT22;11592;45.460;9.240;2023-11-21T12:32:59;33.60;65.20
22852;DHT22;11592;45.460;9.240;2023-11-21T12:35:33;34.60;60.60
22852;DHT22;11592;45.460;9.240;2023-11-21T12:38:04;35.00;60.00
22852;DHT22;11592;45.460;9.240;2023-11-21T12:40:31;35.60;57.20
22852;DHT22;11592;45.460;9.240;2023-11-21T12:42:59;35.30;54.80
22852;DHT22;11592;45.460;9.240;2023-11-21T12:45:28;34.90;54.90
22852;DHT22;11592;45.460;9.240;2023-11-21T12:50:28;35.20;53.60
22852;DHT22;11592;45.460;9.240;2023-11-21T12:53:01;34.70;54.40
22852;DHT22;11592;45.460;9.240;2023-11-21T12:55:33;34.50;54.70
22852;DHT22;11592;45.460;9.240;2023-11-21T12:58:02;34.70;54.90
22852;DHT22;11592;45.460;9.240;2023-11-21T13:00:42;35.20;54.70
22852;DHT22;11592;45.460;9.240;2023-11-21T13:03:12;35.40;51.60
22852;DHT22;11592;45.460;9.240;2023-11-21T13:05:46;34.90;51.10
22852;DHT22;11592;45.460;9.240;2023-11-21T13:08:15;34.70;51.30
22852;DHT22;11592;45.460;9.240;2023-11-21T13:10:49;34.90;51.10
22852;DHT22;11592;45.460;9.240;2023-11-21T13:13:17;34.90;50.80
22852;DHT22;11592;45.460;9.240;2023-11-21T13:15:50;34.70;51.20
22852;DHT22;11592;45.460;9.240;2023-11-21T13:18:19;34.40;50.10
22852;DHT22;11592;45.460;9.240;2023-11-21T13:20:49;34.20;50.20
22852;DHT22;11592;45.460;9.240;2023-11-21T13:23:16;33.50;50.90
22852;DHT22;11592;45.460;9.240;2023-11-21T13:25:43;33.20;51.30
22852;DHT22;11592;45.460;9.240;2023-11-21T13:28:20;33.50;51.50
22852;DHT22;11592;45.460;9.240;2023-11-21T13:30:50;33.70;52.60
22852;DHT22;11592;45.460;9.240;2023-11-21T13:33:19;33.70;52.40
22852;DHT22;11592;45.460;9.240;2023-11-21T13:35:48;33.60;51.80
22852;DHT22;11592;45.460;9.240;2023-11-21T13:38:18;33.50;52.10
22852;DHT22;11592;45.460;9.240;2023-11-21T13:40:51;33.50;51.80
22852;DHT22;11592;45.460;9.240;2023-11-21T13:43:22;33.30;51.40
22852;DHT22;11592;45.460;9.240;2023-11-21T13:45:51;32.90;52.30
22852;DHT22;11592;45.460;9.240;2023-11-21T13:48:40;32.30;52.80
22852;DHT22;11592;45.460;9.240;2023-11-21T13:51:15;32.40;53.50
22852;DHT22;11592;45.460;9.240;2023-11-21T13:53:46;32.30;53.10
22852;DHT22;11592;45.460;9.240;2023-11-21T13:56:22;32.10;53.10
22852;DHT22;11592;45.460;9.240;2023-11-21T13:58:51;31.00;54.40
22852;DHT22;11592;45.460;9.240;2023-11-21T14:01:21;30.60;55.00
22852;DHT22;11592;45.460;9.240;2023-11-21T14:04:02;30.60;55.80
22852;DHT22;11592;45.460;9.240;2023-11-21T14:06:47;30.60;56.00
22852;DHT22;11592;45.460;9.240;2023-11-21T14:09:22;30.50;56.00
22852;DHT22;11592;45.460;9.240;2023-11-21T14:11:55;28.60;57.60
22852;DHT22;11592;45.460;9.240;2023-11-21T14:14:25;25.90;61.90
22852;DHT22;11592;45.460;9.240;2023-11-21T14:16:52;23.80;67.70
22852;DHT22;11592;45.460;9.240;2023-11-21T14:19:19;22.30;75.50
22852;DHT22;11592;45.460;9.240;2023-11-21T14:21:47;21.10;81.80
22852;DHT22;11592;45.460;9.240;2023-11-21T14:24:17;20.30;90.10
22852;DHT22;11592;45.460;9.240;2023-11-21T14:26:46;19.50;93.10
22852;DHT22;11592;45.460;9.240;2023-11-21T14:29:14;19.00;96.60
22852;DHT22;11592;45.460;9.240;2023-11-21T14:31:43;18.80;99.50
22852;DHT22;11592;45.460;9.240;2023-11-21T14:34:10;18.50;99.90
22852;DHT22;11592;45.460;9.240;2023-11-21T14:36:39;18.30;99.90
22852;DHT22;11592;45.460;9.240;2023-11-21T14:39:06;18.00;99.90
22852;DHT22;11592;45.460;9.240;2023-11-21T14:41:36;17.80;99.90
22852;DHT22;11592;45.460;9.240;2023-11-21T14:44:05;17.60;99.90
22852;DHT22;11592;45.460;9.240;2023-11-21T14:46:34;17.40;99.90
22852;DHT22;11592;45.460;9.240;2023-11-21T14:49:03;17.20;99.90
22852;DHT22;11592;45.460;9.240;2023-11-21T14:51:51;17.20;99.90
22852;DHT22;11592;45.460;9.240;2023-11-21T14:54:32;17.10;99.90
22852;DHT22;11592;45.460;9.240;2023-11-21T14:57:13;16.90;99.90
22852;DHT22;11592;45.460;9.240;2023-11-21T14:59:47;16.80;99.90
22852;DHT22;11592;45.460;9.240;2023-11-21T15:02:19;16.60;99.90
22852;DHT22;11592;45.460;9.240;2023-11-21T15:05:10;16.60;99.90
22852;DHT22;11592;45.460;9.240;2023-11-21T15:07:43;16.50;99.90
22852;DHT22;11592;45.460;9.240;2023-11-21T15:10:12;16.40;99.90
22852;DHT22;11592;45.460;9.240;2023-11-21T15:12:42;16.20;99.90
22852;DHT22;11592;45.460;9.240;2023-11-21T15:15:11;16.10;99.90
22852;DHT22;11592;45.460;9.240;2023-11-21T15:17:39;15.90;99.90
22852;DHT22;11592;45.460;9.240;2023-11-21T15:20:10;15.90;99.90
22852;DHT22;11592;45.460;9.240;2023-11-21T15:22:39;15.80;99.90
22852;DHT22;11592;45.460;9.240;2023-11-21T15:25:07;15.70;99.90
22852;DHT22;11592;45.460;9.240;2023-11-21T15:27:37;15.70;99.90
22852;DHT22;11592;45.460;9.240;2023-11-21T15:30:05;15.60;99.90
22852;DHT22;11592;45.460;9.240;2023-11-21T15:32:32;15.60;99.90
22852;DHT22;11592;45.460;9.240;2023-11-21T15:34:59;15.50;99.90
22852;DHT22;11592;45.460;9.240;2023-11-21T15:37:26;15.40;99.90
22852;DHT22;11592;45.460;9.240;2023-11-21T15:39:55;15.30;99.90
22852;DHT22;11592;45.460;9.240;2023-11-21T15:42:21;15.10;99.90
22852;DHT22;11592;45.460;9.240;2023-11-21T15:44:48;15.10;99.90
22852;DHT22;11592;45.460;9.240;2023-11-21T15:47:16;14.90;99.90
22852;DHT22;11592;45.460;9.240;2023-11-21T15:49:43;14.70;99.90
22852;DHT22;11592;45.460;9.240;2023-11-21T15:52:15;14.70;99.90